sensor_id;sensor_type;location;lat;lon;timestamp;temperature;humidity
10572;DHT22;5334;48.928;12.704;2023-05-15T00:00:04;11.60;99.90
10572;DHT22;5334;48.928;12.704;2023-05-15T00:02:31;11.60;99.90
10572;DHT22;5334;48.928;12.704;2023-05-15T00:04:59;11.60;99.90
10572;DHT22;5334;48.928;12.704;2023-05-15T00:07:24;11.60;99.90
10572;DHT22;5334;48.928;12.704;2023-05-15T00:09:50;11.60;99.90
10572;DHT22;5334;48.928;12.704;2023-05-15T00:12:16;11.60;99.90
10572;DHT22;5334;48.928;12.704;2023-05-15T00:14:41;11.60;99.90
10572;DHT22;5334;48.928;12.704;2023-05-15T00:17:07;11.50;99.90
10572;DHT22;5334;48.928;12.704;2023-05-15T00:19:34;11.50;99.90
10572;DHT22;5334;48.928;12.704;2023-05-15T00:22:00;11.50;99.90
10572;DHT22;5334;48.928;12.704;2023-05-15T00:24:25;11.50;99.90
10572;DHT22;5334;48.928;12.704;2023-05-15T00:26:51;11.50;99.90
10572;DHT22;5334;48.928;12.704;2023-05-15T00:29:17;11.40;99.90
10572;DHT22;5334;48.928;12.704;2023-05-15T00:31:42;11.40;99.90
10572;DHT22;5334;48.928;12.704;2023-05-15T00:34:08;11.40;99.90
10572;DHT22;5334;48.928;12.704;2023-05-15T00:36:34;11.40;99.90
10572;DHT22;5334;48.928;12.704;2023-05-15T00:38:59;11.30;99.90
10572;DHT22;5334;48.928;12.704;2023-05-15T00:41:26;11.40;99.90
10572;DHT22;5334;48.928;12.704;2023-05-15T00:43:54;11.30;99.90
10572;DHT22;5334;48.928;12.704;2023-05-15T00:46:21;11.30;99.90
10572;DHT22;5334;48.928;12.704;2023-05-15T00:48:49;11.30;99.90
10572;DHT22;5334;48.928;12.704;2023-05-15T00:51:15;11.00;99.90
10572;DHT22;5334;48.928;12.704;2023-05-15T00:53:42;11.30;99.90
10572;DHT22;5334;48.928;12.704;2023-05-15T00:56:08;11.30;99.90
10572;DHT22;5334;48.928;12.704;2023-05-15T00:58:36;11.30;99.90
10572;DHT22;5334;48.928;12.704;2023-05-15T01:01:02;11.30;99.90
10572;DHT22;5334;48.928;12.704;2023-05-15T01:03:28;11.30;99.90
10572;DHT22;5334;48.928;12.704;2023-05-15T01:05:54;11.20;99.90
10572;DHT22;5334;48.928;12.704;2023-05-15T01:08:25;11.20;99.90
10572;DHT22;5334;48.928;12.704;2023-05-15T01:10:51;11.20;99.90
10572;DHT22;5334;48.928;12.704;2023-05-15T01:13:21;12.00;99.90
10572;DHT22;5334;48.928;12.704;2023-05-15T01:15:48;11.50;99.90
10572;DHT22;5334;48.928;12.704;2023-05-15T01:18:14;11.10;99.90
10572;DHT22;5334;48.928;12.704;2023-05-15T01:34:07;11.00;99.90
10572;DHT22;5334;48.928;12.704;2023-05-15T01:39:06;11.00;99.90
10572;DHT22;5334;48.928;12.704;2023-05-15T01:41:50;10.90;99.90
10572;DHT22;5334;48.928;12.704;2023-05-15T01:44:27;10.90;99.90
10572;DHT22;5334;48.928;12.704;2023-05-15T01:47:03;10.90;99.90
10572;DHT22;5334;48.928;12.704;2023-05-15T01:49:31;10.90;99.90
10572;DHT22;5334;48.928;12.704;2023-05-15T01:52:13;11.00;99.90
10572;DHT22;5334;48.928;12.704;2023-05-15T01:54:39;11.00;99.90
10572;DHT22;5334;48.928;12.704;2023-05-15T01:59:34;11.00;99.90
10572;DHT22;5334;48.928;12.704;2023-05-15T02:02:02;11.00;99.90
10572;DHT22;5334;48.928;12.704;2023-05-15T02:04:29;11.00;99.90
10572;DHT22;5334;48.928;12.704;2023-05-15T02:06:55;11.10;99.90
10572;DHT22;5334;48.928;12.704;2023-05-15T02:09:21;11.10;99.90
10572;DHT22;5334;48.928;12.704;2023-05-15T02:11:48;11.10;99.90
10572;DHT22;5334;48.928;12.704;2023-05-15T02:14:15;11.10;99.90
10572;DHT22;5334;48.928;12.704;2023-05-15T02:16:41;11.10;99.90
10572;DHT22;5334;48.928;12.704;2023-05-15T02:19:07;11.10;99.90
10572;DHT22;5334;48.928;12.704;2023-05-15T02:21:34;11.00;99.90
10572;DHT22;5334;48.928;12.704;2023-05-15T02:24:00;11.00;99.90
10572;DHT22;5334;48.928;12.704;2023-05-15T02:29:17;11.00;99.90
10572;DHT22;5334;48.928;12.704;2023-05-15T02:37:34;11.00;99.90
10572;DHT22;5334;48.928;12.704;2023-05-15T02:40:02;11.00;99.90
10572;DHT22;5334;48.928;12.704;2023-05-15T02:42:32;10.90;99.90
10572;DHT22;5334;48.928;12.704;2023-05-15T02:44:59;11.00;99.90
10572;DHT22;5334;48.928;12.704;2023-05-15T02:47:26;10.90;99.90
10572;DHT22;5334;48.928;12.704;2023-05-15T02:49:53;11.00;99.90
10572;DHT22;5334;48.928;12.704;2023-05-15T02:52:21;10.90;99.90
10572;DHT22;5334;48.928;12.704;2023-05-15T02:54:47;10.90;99.90
10572;DHT22;5334;48.928;12.704;2023-05-15T02:57:12;10.90;99.90
10572;DHT22;5334;48.928;12.704;2023-05-15T02:59:38;10.90;99.90
10572;DHT22;5334;48.928;12.704;2023-05-15T03:02:04;10.90;99.90
10572;DHT22;5334;48.928;12.704;2023-05-15T03:04:30;10.90;99.90
10572;DHT22;5334;48.928;12.704;2023-05-15T03:06:55;10.90;99.90
10572;DHT22;5334;48.928;12.704;2023-05-15T03:09:21;10.90;99.90
10572;DHT22;5334;48.928;12.704;2023-05-15T03:11:47;10.90;99.90
10572;DHT22;5334;48.928;12.704;2023-05-15T03:14:12;10.90;99.90
10572;DHT22;5334;48.928;12.704;2023-05-15T03:16:40;10.90;99.90
10572;DHT22;5334;48.928;12.704;2023-05-15T03:19:05;10.90;99.90
10572;DHT22;5334;48.928;12.704;2023-05-15T03:21:31;10.90;99.90
10572;DHT22;5334;48.928;12.704;2023-05-15T03:23:56;10.90;99.90
10572;DHT22;5334;48.928;12.704;2023-05-15T03:26:22;11.00;99.90
10572;DHT22;5334;48.928;12.704;2023-05-15T03:28:48;11.00;99.90
10572;DHT22;5334;48.928;12.704;2023-05-15T03:31:14;11.00;99.90
10572;DHT22;5334;48.928;12.704;2023-05-15T03:33:39;11.00;99.90
10572;DHT22;5334;48.928;12.704;2023-05-15T03:36:05;10.90;99.90
10572;DHT22;5334;48.928;12.704;2023-05-15T03:38:31;10.90;99.90
10572;DHT22;5334;48.928;12.704;2023-05-15T03:40:57;11.00;99.90
10572;DHT22;5334;48.928;12.704;2023-05-15T03:43:23;11.00;99.90
10572;DHT22;5334;48.928;12.704;2023-05-15T03:45:49;11.00;99.90
10572;DHT22;5334;48.928;12.704;2023-05-15T03:48:14;11.00;99.90
10572;DHT22;5334;48.928;12.704;2023-05-15T03:50:42;11.00;99.90
10572;DHT22;5334;48.928;12.704;2023-05-15T03:53:08;11.00;99.90
10572;DHT22;5334;48.928;12.704;2023-05-15T03:55:34;11.00;99.90
10572;DHT22;5334;48.928;12.704;2023-05-15T03:58:00;11.00;99.90
10572;DHT22;5334;48.928;12.704;2023-05-15T04:00:26;11.00;99.90
10572;DHT22;5334;48.928;12.704;2023-05-15T04:02:51;11.00;99.90
10572;DHT22;5334;48.928;12.704;2023-05-15T04:05:17;11.00;99.90
10572;DHT22;5334;48.928;12.704;2023-05-15T04:07:44;11.00;99.90
10572;DHT22;5334;48.928;12.704;2023-05-15T04:10:10;11.00;99.90
10572;DHT22;5334;48.928;12.704;2023-05-15T04:12:35;10.90;99.90
10572;DHT22;5334;48.928;12.704;2023-05-15T04:15:22;10.80;99.90
10572;DHT22;5334;48.928;12.704;2023-05-15T04:17:49;10.80;99.90
10572;DHT22;5334;48.928;12.704;2023-05-15T04:20:17;10.80;99.90
10572;DHT22;5334;48.928;12.704;2023-05-15T04:22:43;10.80;99.90
10572;DHT22;5334;48.928;12.704;2023-05-15T04:27:37;10.70;99.90
10572;DHT22;5334;48.928;12.704;2023-05-15T04:32:30;10.60;99.90
10572;DHT22;5334;48.928;12.704;2023-05-15T04:37:21;10.60;99.90
10572;DHT22;5334;48.928;12.704;2023-05-15T04:39:47;10.50;99.90
10572;DHT22;5334;48.928;12.704;2023-05-15T04:42:13;10.60;99.90
10572;DHT22;5334;48.928;12.704;2023-05-15T04:44:38;10.60;99.90
10572;DHT22;5334;48.928;12.704;2023-05-15T04:47:04;10.60;99.90
10572;DHT22;5334;48.928;12.704;2023-05-15T04:49:30;10.60;99.90
10572;DHT22;5334;48.928;12.704;2023-05-15T04:51:55;10.70;99.90
10572;DHT22;5334;48.928;12.704;2023-05-15T04:54:21;10.70;99.90
10572;DHT22;5334;48.928;12.704;2023-05-15T04:56:46;10.70;99.90
10572;DHT22;5334;48.928;12.704;2023-05-15T04:59:12;10.70;99.90
10572;DHT22;5334;48.928;12.704;2023-05-15T05:01:38;10.70;99.90
10572;DHT22;5334;48.928;12.704;2023-05-15T05:04:04;10.70;99.90
10572;DHT22;5334;48.928;12.704;2023-05-15T05:06:30;10.70;99.90
10572;DHT22;5334;48.928;12.704;2023-05-15T05:08:55;10.70;99.90
10572;DHT22;5334;48.928;12.704;2023-05-15T05:11:21;10.70;99.90
10572;DHT22;5334;48.928;12.704;2023-05-15T05:13:47;10.70;99.90
10572;DHT22;5334;48.928;12.704;2023-05-15T05:16:13;10.70;99.90
10572;DHT22;5334;48.928;12.704;2023-05-15T05:18:39;10.80;99.90
10572;DHT22;5334;48.928;12.704;2023-05-15T05:21:04;10.70;99.90
10572;DHT22;5334;48.928;12.704;2023-05-15T05:23:30;10.80;99.90
10572;DHT22;5334;48.928;12.704;2023-05-15T05:25:56;10.70;99.90
10572;DHT22;5334;48.928;12.704;2023-05-15T05:28:22;10.70;99.90
10572;DHT22;5334;48.928;12.704;2023-05-15T05:30:48;10.70;99.90
10572;DHT22;5334;48.928;12.704;2023-05-15T05:33:14;10.70;99.90
10572;DHT22;5334;48.928;12.704;2023-05-15T05:35:40;10.80;99.90
10572;DHT22;5334;48.928;12.704;2023-05-15T05:38:05;10.80;99.90
10572;DHT22;5334;48.928;12.704;2023-05-15T05:40:31;10.80;99.90
10572;DHT22;5334;48.928;12.704;2023-05-15T05:43:00;10.80;99.90
10572;DHT22;5334;48.928;12.704;2023-05-15T05:45:27;10.80;99.90
10572;DHT22;5334;48.928;12.704;2023-05-15T05:47:56;10.90;99.90
10572;DHT22;5334;48.928;12.704;2023-05-15T05:50:22;10.90;99.90
10572;DHT22;5334;48.928;12.704;2023-05-15T05:52:48;10.90;99.90
10572;DHT22;5334;48.928;12.704;2023-05-15T05:55:14;11.00;99.90
10572;DHT22;5334;48.928;12.704;2023-05-15T05:57:40;11.00;99.90
10572;DHT22;5334;48.928;12.704;2023-05-15T06:00:07;11.00;99.90
10572;DHT22;5334;48.928;12.704;2023-05-15T06:02:35;11.00;99.90
10572;DHT22;5334;48.928;12.704;2023-05-15T06:05:01;11.10;99.90
10572;DHT22;5334;48.928;12.704;2023-05-15T06:07:27;11.10;99.90
10572;DHT22;5334;48.928;12.704;2023-05-15T06:09:53;11.20;99.90
10572;DHT22;5334;48.928;12.704;2023-05-15T06:12:18;11.20;99.90
10572;DHT22;5334;48.928;12.704;2023-05-15T06:14:44;11.30;99.90
10572;DHT22;5334;48.928;12.704;2023-05-15T06:17:10;11.30;99.90
10572;DHT22;5334;48.928;12.704;2023-05-15T06:19:36;11.40;99.90
10572;DHT22;5334;48.928;12.704;2023-05-15T06:22:02;11.50;99.90
10572;DHT22;5334;48.928;12.704;2023-05-15T06:24:28;11.50;99.90
10572;DHT22;5334;48.928;12.704;2023-05-15T06:26:53;11.50;99.90
10572;DHT22;5334;48.928;12.704;2023-05-15T06:29:19;11.60;99.90
10572;DHT22;5334;48.928;12.704;2023-05-15T06:31:45;11.70;99.90
10572;DHT22;5334;48.928;12.704;2023-05-15T06:34:11;11.80;99.90
10572;DHT22;5334;48.928;12.704;2023-05-15T06:36:36;11.90;99.90
10572;DHT22;5334;48.928;12.704;2023-05-15T06:39:02;11.90;99.90
10572;DHT22;5334;48.928;12.704;2023-05-15T06:41:28;12.00;99.90
10572;DHT22;5334;48.928;12.704;2023-05-15T06:43:53;12.20;99.90
10572;DHT22;5334;48.928;12.704;2023-05-15T06:46:20;12.30;99.90
10572;DHT22;5334;48.928;12.704;2023-05-15T06:48:46;12.50;99.90
10572;DHT22;5334;48.928;12.704;2023-05-15T06:51:12;12.60;99.90
10572;DHT22;5334;48.928;12.704;2023-05-15T06:53:38;12.60;99.90
10572;DHT22;5334;48.928;12.704;2023-05-15T06:56:03;12.60;99.90
10572;DHT22;5334;48.928;12.704;2023-05-15T06:58:29;12.70;99.90
10572;DHT22;5334;48.928;12.704;2023-05-15T07:00:54;12.70;99.90
10572;DHT22;5334;48.928;12.704;2023-05-15T07:03:20;12.80;99.90
10572;DHT22;5334;48.928;12.704;2023-05-15T07:05:46;12.80;99.90
10572;DHT22;5334;48.928;12.704;2023-05-15T07:08:11;12.80;99.90
10572;DHT22;5334;48.928;12.704;2023-05-15T07:10:37;12.90;99.90
10572;DHT22;5334;48.928;12.704;2023-05-15T07:13:03;12.90;99.90
10572;DHT22;5334;48.928;12.704;2023-05-15T07:15:28;12.90;99.90
10572;DHT22;5334;48.928;12.704;2023-05-15T07:17:54;12.80;99.90
10572;DHT22;5334;48.928;12.704;2023-05-15T07:20:20;12.90;99.90
10572;DHT22;5334;48.928;12.704;2023-05-15T07:22:45;13.00;99.90
10572;DHT22;5334;48.928;12.704;2023-05-15T07:25:11;13.00;99.90
10572;DHT22;5334;48.928;12.704;2023-05-15T07:27:36;13.10;99.90
10572;DHT22;5334;48.928;12.704;2023-05-15T07:30:03;13.20;99.90
10572;DHT22;5334;48.928;12.704;2023-05-15T07:32:29;13.20;99.90
10572;DHT22;5334;48.928;12.704;2023-05-15T07:34:55;13.20;99.90
10572;DHT22;5334;48.928;12.704;2023-05-15T07:37:21;13.10;99.90
10572;DHT22;5334;48.928;12.704;2023-05-15T07:39:47;13.00;99.90
10572;DHT22;5334;48.928;12.704;2023-05-15T07:42:13;13.10;99.90
10572;DHT22;5334;48.928;12.704;2023-05-15T07:44:39;13.10;99.90
10572;DHT22;5334;48.928;12.704;2023-05-15T07:47:04;13.20;99.90
10572;DHT22;5334;48.928;12.704;2023-05-15T07:49:30;13.30;99.90
10572;DHT22;5334;48.928;12.704;2023-05-15T07:51:56;13.50;99.90
10572;DHT22;5334;48.928;12.704;2023-05-15T07:54:21;13.60;99.90
10572;DHT22;5334;48.928;12.704;2023-05-15T07:56:47;13.70;99.90
10572;DHT22;5334;48.928;12.704;2023-05-15T07:59:13;13.70;99.90
10572;DHT22;5334;48.928;12.704;2023-05-15T08:01:38;13.90;99.90
10572;DHT22;5334;48.928;12.704;2023-05-15T08:04:07;14.10;99.90
10572;DHT22;5334;48.928;12.704;2023-05-15T08:06:33;14.30;99.90
10572;DHT22;5334;48.928;12.704;2023-05-15T08:08:59;14.50;99.90
10572;DHT22;5334;48.928;12.704;2023-05-15T08:11:25;14.60;99.90
10572;DHT22;5334;48.928;12.704;2023-05-15T08:13:51;14.70;99.90
10572;DHT22;5334;48.928;12.704;2023-05-15T08:16:17;14.80;99.90
10572;DHT22;5334;48.928;12.704;2023-05-15T08:18:43;14.90;99.90
10572;DHT22;5334;48.928;12.704;2023-05-15T08:21:09;15.00;99.90
10572;DHT22;5334;48.928;12.704;2023-05-15T08:23:35;15.00;99.90
10572;DHT22;5334;48.928;12.704;2023-05-15T08:26:01;15.00;99.90
10572;DHT22;5334;48.928;12.704;2023-05-15T08:28:27;15.20;99.90
10572;DHT22;5334;48.928;12.704;2023-05-15T08:30:52;15.40;99.90
10572;DHT22;5334;48.928;12.704;2023-05-15T08:33:18;15.60;99.90
10572;DHT22;5334;48.928;12.704;2023-05-15T08:35:44;16.10;99.90
10572;DHT22;5334;48.928;12.704;2023-05-15T08:38:10;16.40;99.90
10572;DHT22;5334;48.928;12.704;2023-05-15T08:40:36;16.30;99.90
10572;DHT22;5334;48.928;12.704;2023-05-15T08:43:11;16.30;99.90
10572;DHT22;5334;48.928;12.704;2023-05-15T08:45:40;16.40;99.90
10572;DHT22;5334;48.928;12.704;2023-05-15T08:53:12;16.90;99.90
10572;DHT22;5334;48.928;12.704;2023-05-15T08:55:38;16.50;99.90
10572;DHT22;5334;48.928;12.704;2023-05-15T08:58:04;16.40;99.90
10572;DHT22;5334;48.928;12.704;2023-05-15T09:00:30;16.70;99.90
10572;DHT22;5334;48.928;12.704;2023-05-15T09:02:58;16.60;99.90
10572;DHT22;5334;48.928;12.704;2023-05-15T09:05:29;16.20;99.90
10572;DHT22;5334;48.928;12.704;2023-05-15T09:07:56;15.90;99.90
10572;DHT22;5334;48.928;12.704;2023-05-15T09:10:23;15.90;99.90
10572;DHT22;5334;48.928;12.704;2023-05-15T09:12:50;16.10;99.90
10572;DHT22;5334;48.928;12.704;2023-05-15T09:15:18;16.70;99.90
10572;DHT22;5334;48.928;12.704;2023-05-15T09:17:47;17.30;99.90
10572;DHT22;5334;48.928;12.704;2023-05-15T09:20:31;18.00;99.90
10572;DHT22;5334;48.928;12.704;2023-05-15T09:22:59;18.50;99.90
10572;DHT22;5334;48.928;12.704;2023-05-15T09:25:38;18.10;99.90
10572;DHT22;5334;48.928;12.704;2023-05-15T09:28:06;17.50;99.90
10572;DHT22;5334;48.928;12.704;2023-05-15T09:30:31;17.40;99.90
10572;DHT22;5334;48.928;12.704;2023-05-15T09:33:00;17.40;99.90
10572;DHT22;5334;48.928;12.704;2023-05-15T09:35:30;17.70;99.90
10572;DHT22;5334;48.928;12.704;2023-05-15T09:38:00;18.20;99.90
10572;DHT22;5334;48.928;12.704;2023-05-15T09:40:30;18.40;99.90
10572;DHT22;5334;48.928;12.704;2023-05-15T09:42:56;18.00;99.90
10572;DHT22;5334;48.928;12.704;2023-05-15T09:45:22;17.50;99.90
10572;DHT22;5334;48.928;12.704;2023-05-15T09:47:51;17.30;99.90
10572;DHT22;5334;48.928;12.704;2023-05-15T09:50:22;17.10;99.90
10572;DHT22;5334;48.928;12.704;2023-05-15T09:52:49;17.30;99.90
10572;DHT22;5334;48.928;12.704;2023-05-15T09:55:15;17.80;99.90
10572;DHT22;5334;48.928;12.704;2023-05-15T09:58:03;18.20;99.90
10572;DHT22;5334;48.928;12.704;2023-05-15T10:00:29;18.20;99.90
10572;DHT22;5334;48.928;12.704;2023-05-15T10:02:57;18.00;99.90
10572;DHT22;5334;48.928;12.704;2023-05-15T10:05:28;17.80;99.90
10572;DHT22;5334;48.928;12.704;2023-05-15T10:07:55;17.80;99.90
10572;DHT22;5334;48.928;12.704;2023-05-15T10:10:21;18.00;99.90
10572;DHT22;5334;48.928;12.704;2023-05-15T10:12:49;18.10;99.90
10572;DHT22;5334;48.928;12.704;2023-05-15T10:15:16;17.90;99.90
10572;DHT22;5334;48.928;12.704;2023-05-15T10:17:43;18.00;99.90
10572;DHT22;5334;48.928;12.704;2023-05-15T10:20:09;18.30;99.90
10572;DHT22;5334;48.928;12.704;2023-05-15T10:22:36;18.00;99.90
10572;DHT22;5334;48.928;12.704;2023-05-15T10:25:08;17.70;99.90
10572;DHT22;5334;48.928;12.704;2023-05-15T10:27:37;17.50;99.90
10572;DHT22;5334;48.928;12.704;2023-05-15T10:30:06;17.40;99.90
10572;DHT22;5334;48.928;12.704;2023-05-15T10:32:34;17.70;99.90
10572;DHT22;5334;48.928;12.704;2023-05-15T10:35:02;17.80;99.90
10572;DHT22;5334;48.928;12.704;2023-05-15T10:37:28;17.60;99.90
10572;DHT22;5334;48.928;12.704;2023-05-15T10:39:54;17.40;99.90
10572;DHT22;5334;48.928;12.704;2023-05-15T10:42:23;17.30;99.90
10572;DHT22;5334;48.928;12.704;2023-05-15T10:44:52;17.20;99.90
10572;DHT22;5334;48.928;12.704;2023-05-15T10:47:18;17.50;99.90
10572;DHT22;5334;48.928;12.704;2023-05-15T10:49:44;17.70;99.90
10572;DHT22;5334;48.928;12.704;2023-05-15T10:52:10;17.60;99.90
10572;DHT22;5334;48.928;12.704;2023-05-15T10:54:36;17.60;99.90
10572;DHT22;5334;48.928;12.704;2023-05-15T10:57:02;17.80;99.90
10572;DHT22;5334;48.928;12.704;2023-05-15T10:59:32;18.30;99.90
10572;DHT22;5334;48.928;12.704;2023-05-15T11:04:43;18.00;99.90
10572;DHT22;5334;48.928;12.704;2023-05-15T11:07:14;18.20;99.90
10572;DHT22;5334;48.928;12.704;2023-05-15T11:09:40;18.80;99.90
10572;DHT22;5334;48.928;12.704;2023-05-15T11:12:09;18.90;99.90
10572;DHT22;5334;48.928;12.704;2023-05-15T11:17:12;19.20;99.90
10572;DHT22;5334;48.928;12.704;2023-05-15T11:22:30;19.60;99.90
10572;DHT22;5334;48.928;12.704;2023-05-15T11:27:37;20.20;99.90
10572;DHT22;5334;48.928;12.704;2023-05-15T11:35:28;19.80;99.90
10572;DHT22;5334;48.928;12.704;2023-05-15T11:38:18;19.40;99.90
10572;DHT22;5334;48.928;12.704;2023-05-15T11:43:20;18.50;99.90
10572;DHT22;5334;48.928;12.704;2023-05-15T11:45:51;18.00;99.90
10572;DHT22;5334;48.928;12.704;2023-05-15T11:48:18;17.50;99.90
10572;DHT22;5334;48.928;12.704;2023-05-15T11:50:44;17.20;99.90
10572;DHT22;5334;48.928;12.704;2023-05-15T11:53:11;16.90;99.90
10572;DHT22;5334;48.928;12.704;2023-05-15T11:55:38;16.70;99.90
10572;DHT22;5334;48.928;12.704;2023-05-15T11:58:09;16.90;99.90
10572;DHT22;5334;48.928;12.704;2023-05-15T12:00:35;17.50;99.90
10572;DHT22;5334;48.928;12.704;2023-05-15T12:03:01;18.30;99.90
10572;DHT22;5334;48.928;12.704;2023-05-15T12:05:28;18.90;99.90
10572;DHT22;5334;48.928;12.704;2023-05-15T12:07:55;19.30;99.90
10572;DHT22;5334;48.928;12.704;2023-05-15T12:10:21;19.60;99.90
10572;DHT22;5334;48.928;12.704;2023-05-15T12:12:48;19.90;99.90
10572;DHT22;5334;48.928;12.704;2023-05-15T12:15:15;20.20;99.90
10572;DHT22;5334;48.928;12.704;2023-05-15T12:17:42;20.70;99.90
10572;DHT22;5334;48.928;12.704;2023-05-15T12:20:10;20.10;99.90
10572;DHT22;5334;48.928;12.704;2023-05-15T12:22:40;19.20;99.90
10572;DHT22;5334;48.928;12.704;2023-05-15T12:25:10;18.60;99.90
10572;DHT22;5334;48.928;12.704;2023-05-15T12:27:39;18.30;99.90
10572;DHT22;5334;48.928;12.704;2023-05-15T12:30:06;18.10;99.90
10572;DHT22;5334;48.928;12.704;2023-05-15T12:32:34;18.00;99.90
10572;DHT22;5334;48.928;12.704;2023-05-15T12:35:01;18.10;99.90
10572;DHT22;5334;48.928;12.704;2023-05-15T12:37:30;18.20;99.90
10572;DHT22;5334;48.928;12.704;2023-05-15T12:39:59;18.50;99.90
10572;DHT22;5334;48.928;12.704;2023-05-15T12:42:25;19.10;99.90
10572;DHT22;5334;48.928;12.704;2023-05-15T12:44:53;19.30;99.90
10572;DHT22;5334;48.928;12.704;2023-05-15T12:47:26;19.30;99.90
10572;DHT22;5334;48.928;12.704;2023-05-15T12:49:56;20.00;99.90
10572;DHT22;5334;48.928;12.704;2023-05-15T12:52:22;19.90;99.90
10572;DHT22;5334;48.928;12.704;2023-05-15T12:54:47;19.70;99.90
10572;DHT22;5334;48.928;12.704;2023-05-15T12:57:13;19.20;99.90
10572;DHT22;5334;48.928;12.704;2023-05-15T12:59:39;19.10;99.90
10572;DHT22;5334;48.928;12.704;2023-05-15T13:02:09;19.10;99.90
10572;DHT22;5334;48.928;12.704;2023-05-15T13:04:36;18.80;99.90
10572;DHT22;5334;48.928;12.704;2023-05-15T13:07:02;18.60;99.90
10572;DHT22;5334;48.928;12.704;2023-05-15T13:09:28;18.40;99.90
10572;DHT22;5334;48.928;12.704;2023-05-15T13:11:55;18.40;99.90
10572;DHT22;5334;48.928;12.704;2023-05-15T13:14:21;18.40;99.90
10572;DHT22;5334;48.928;12.704;2023-05-15T13:16:51;18.50;99.90
10572;DHT22;5334;48.928;12.704;2023-05-15T13:19:17;18.40;99.90
10572;DHT22;5334;48.928;12.704;2023-05-15T13:21:43;18.30;99.90
10572;DHT22;5334;48.928;12.704;2023-05-15T13:24:10;18.20;99.90
10572;DHT22;5334;48.928;12.704;2023-05-15T13:26:35;18.00;99.90
10572;DHT22;5334;48.928;12.704;2023-05-15T13:29:01;17.80;99.90
10572;DHT22;5334;48.928;12.704;2023-05-15T13:31:27;17.70;99.90
10572;DHT22;5334;48.928;12.704;2023-05-15T13:33:53;17.60;99.90
10572;DHT22;5334;48.928;12.704;2023-05-15T13:36:18;17.30;99.90
10572;DHT22;5334;48.928;12.704;2023-05-15T13:38:44;17.00;99.90
10572;DHT22;5334;48.928;12.704;2023-05-15T13:41:10;16.60;99.90
10572;DHT22;5334;48.928;12.704;2023-05-15T13:43:36;16.40;99.90
10572;DHT22;5334;48.928;12.704;2023-05-15T13:46:01;16.20;99.90
10572;DHT22;5334;48.928;12.704;2023-05-15T13:48:27;16.20;99.90
10572;DHT22;5334;48.928;12.704;2023-05-15T13:50:52;16.20;99.90
10572;DHT22;5334;48.928;12.704;2023-05-15T13:53:18;16.60;99.90
10572;DHT22;5334;48.928;12.704;2023-05-15T13:55:44;17.40;99.90
10572;DHT22;5334;48.928;12.704;2023-05-15T13:58:11;17.90;99.90
10572;DHT22;5334;48.928;12.704;2023-05-15T14:00:38;17.90;99.90
10572;DHT22;5334;48.928;12.704;2023-05-15T14:03:04;17.90;99.90
10572;DHT22;5334;48.928;12.704;2023-05-15T14:05:31;18.20;99.90
10572;DHT22;5334;48.928;12.704;2023-05-15T14:07:56;18.50;99.90
10572;DHT22;5334;48.928;12.704;2023-05-15T14:10:22;18.50;99.90
10572;DHT22;5334;48.928;12.704;2023-05-15T14:12:51;18.40;99.90
10572;DHT22;5334;48.928;12.704;2023-05-15T14:15:17;18.40;99.90
10572;DHT22;5334;48.928;12.704;2023-05-15T14:17:42;18.20;99.90
10572;DHT22;5334;48.928;12.704;2023-05-15T14:20:09;18.00;99.90
10572;DHT22;5334;48.928;12.704;2023-05-15T14:22:36;18.00;99.90
10572;DHT22;5334;48.928;12.704;2023-05-15T14:25:02;18.30;99.90
10572;DHT22;5334;48.928;12.704;2023-05-15T14:27:29;19.30;99.90
10572;DHT22;5334;48.928;12.704;2023-05-15T14:29:54;20.00;99.90
10572;DHT22;5334;48.928;12.704;2023-05-15T14:32:23;20.30;99.90
10572;DHT22;5334;48.928;12.704;2023-05-15T14:34:49;20.80;99.90
10572;DHT22;5334;48.928;12.704;2023-05-15T14:37:15;20.90;99.90
10572;DHT22;5334;48.928;12.704;2023-05-15T14:39:40;21.30;99.90
10572;DHT22;5334;48.928;12.704;2023-05-15T14:42:07;21.50;99.90
10572;DHT22;5334;48.928;12.704;2023-05-15T14:44:35;21.70;99.90
10572;DHT22;5334;48.928;12.704;2023-05-15T14:49:35;22.30;99.90
10572;DHT22;5334;48.928;12.704;2023-05-15T14:52:01;22.30;99.90
10572;DHT22;5334;48.928;12.704;2023-05-15T14:54:27;22.10;99.40
10572;DHT22;5334;48.928;12.704;2023-05-15T14:56:53;21.80;99.90
10572;DHT22;5334;48.928;12.704;2023-05-15T14:59:19;21.70;99.60
10572;DHT22;5334;48.928;12.704;2023-05-15T15:01:44;21.10;99.90
10572;DHT22;5334;48.928;12.704;2023-05-15T15:04:11;20.40;99.20
10572;DHT22;5334;48.928;12.704;2023-05-15T15:06:36;20.20;99.90
10572;DHT22;5334;48.928;12.704;2023-05-15T15:09:02;20.20;99.90
10572;DHT22;5334;48.928;12.704;2023-05-15T15:11:28;20.10;99.90
10572;DHT22;5334;48.928;12.704;2023-05-15T15:13:53;19.70;99.90
10572;DHT22;5334;48.928;12.704;2023-05-15T15:16:19;19.30;99.90
10572;DHT22;5334;48.928;12.704;2023-05-15T15:18:45;18.90;99.90
10572;DHT22;5334;48.928;12.704;2023-05-15T15:21:11;18.60;99.90
10572;DHT22;5334;48.928;12.704;2023-05-15T15:23:36;18.40;99.90
10572;DHT22;5334;48.928;12.704;2023-05-15T15:26:02;18.30;99.90
10572;DHT22;5334;48.928;12.704;2023-05-15T15:28:28;18.30;99.90
10572;DHT22;5334;48.928;12.704;2023-05-15T15:30:58;18.30;99.90
10572;DHT22;5334;48.928;12.704;2023-05-15T15:33:26;18.20;99.90
10572;DHT22;5334;48.928;12.704;2023-05-15T15:43:10;18.10;99.90
10572;DHT22;5334;48.928;12.704;2023-05-15T15:45:36;18.00;99.90
10572;DHT22;5334;48.928;12.704;2023-05-15T15:48:02;17.90;99.90
10572;DHT22;5334;48.928;12.704;2023-05-15T15:50:27;17.90;99.90
10572;DHT22;5334;48.928;12.704;2023-05-15T15:55:19;18.10;99.90
10572;DHT22;5334;48.928;12.704;2023-05-15T15:57:45;18.20;99.90
10572;DHT22;5334;48.928;12.704;2023-05-15T16:00:11;18.30;99.90
10572;DHT22;5334;48.928;12.704;2023-05-15T16:02:39;18.30;99.90
10572;DHT22;5334;48.928;12.704;2023-05-15T16:05:04;18.30;99.90
10572;DHT22;5334;48.928;12.704;2023-05-15T16:07:31;18.30;99.90
10572;DHT22;5334;48.928;12.704;2023-05-15T16:09:58;18.30;99.90
10572;DHT22;5334;48.928;12.704;2023-05-15T16:12:24;18.30;99.90
10572;DHT22;5334;48.928;12.704;2023-05-15T16:14:50;18.20;99.90
10572;DHT22;5334;48.928;12.704;2023-05-15T16:17:17;18.20;99.90
10572;DHT22;5334;48.928;12.704;2023-05-15T16:19:42;18.10;99.90
10572;DHT22;5334;48.928;12.704;2023-05-15T16:22:08;18.10;99.90
10572;DHT22;5334;48.928;12.704;2023-05-15T16:24:33;18.20;99.90
10572;DHT22;5334;48.928;12.704;2023-05-15T16:27:01;18.30;99.90
10572;DHT22;5334;48.928;12.704;2023-05-15T16:29:27;18.40;99.90
10572;DHT22;5334;48.928;12.704;2023-05-15T16:31:53;18.40;99.90
10572;DHT22;5334;48.928;12.704;2023-05-15T16:34:21;18.40;99.90
10572;DHT22;5334;48.928;12.704;2023-05-15T16:36:46;18.50;99.90